Peru, ME (04290)

7:17 PM EST on March 03, 2015 (GMT -0500)
APRSWXNET Hartford ME US | Change Station
CLOSE
Current Station
Personal Weather Station
Location: Canton, ME
Elevation: 705 ft
Nearby Weather Stations
Active Advisory: Winter Weather Advisory

Elev 705 ft 44.39 °N, 70.31 °W | Updated 33 minutes ago

Mostly Cloudy
Mostly Cloudy
21 °F
Feels Like 21 °F
N
3
Wind Variable Wind from SSW
Gusts 10.0 mph

Today
High -- | Low -- °F
--% Chance of Precip.
Yesterday
High -- | Low -- °F
Precip. -- in
6:16 AM 5:32 PM
Waxing Gibbous, 97% visible
Pressure 30.06 in
Visibility 10.0 miles
Clouds Mostly Cloudy 7000 ft
Overcast 8000 ft
Windchill 21 °F
Dew Point 8 °F
Humidity 56%
Rainfall 0.00 in
Snow Depth Not available.
UV 0 out of 12
Pollen .30 out of 12
Air Quality Not available.
Flu Activity Not available.
METAR KLEW 032355Z AUTO 17010G15KT 10SM BKN070 OVC080 M04/M13 A3006 RMK AO1 11020 21040 410201130 57034

More Conditions Fewer Conditions

Pressure 30.06 in
Visibility 10.0 miles
Clouds Mostly Cloudy 7000 ft
Overcast 8000 ft
Windchill 21 °F
Dew Point 8 °F
Humidity 56%
Rainfall 0.00 in
Snow Depth Not available.
UV 0 out of 12
Pollen .30 out of 12
Air Quality Not available.
Flu Activity Not available.
METAR KLEW 032355Z AUTO 17010G15KT 10SM BKN070 OVC080 M04/M13 A3006 RMK AO1 11020 21040 410201130 57034

More Conditions Fewer Conditions

10-Day Weather Forecast

Almanac

Astronomy

Mar. 03, 2015 Rise Set
Actual Time
Civil Twilight
Nautical Twilight
Astronomical Twilight
Moon
Length of Visible Light
Length of Day
Tomorrow will be .
, % of the Moon is Illuminated

Today's Extremes

State Highs State Lows

Community

WunderPhotos

Upload Photos

1,802,330 photos uploaded!

WunderBlogs® & News

Nearby

Air Quality

  Air Quality AQ Index Pollutant
Not available.

Snow Depth

Station Depth Elevation

Earthquake Activity

City Distance Mag. Time & Date
Minimum magnitude displayed is 2.5.

Coastal Water Temperatures

Place Temperature

Nearby Weather Stations

Winter Weather Advisory
Statement as of 3:06 PM EST on March 03, 2015

... Winter Weather Advisory remains in effect from 7 PM this
evening to 7 am EST Wednesday...

* hazard types..snow.

* Accumulations... snow accumulation of 3 to 5 inches.

* Timing... snow will begin this evening and end by sunrise on
Wednesday.

* Impacts... roads will become snow covered and slippery.

* Winds... south 5 to 15 mph with gusts up to 25 mph.

* Temperatures... in the lower 20s.

Precautionary/preparedness actions...

A Winter Weather Advisory for snow means that periods of snow
will cause primarily travel difficulties. Be prepared for snow
covered roads and limited visibilities... and use caution while
driving.